Aviation Digital Data Service (ADDS)

Output produced by METARs form (0239 UTC 22 July 2017)
found at http://www.aviationweather.gov/adds/metars/
 
GABS 220230Z 22004KT 9999 FEW020 24/23 Q1014 NOSIG
TAF GABS 212325Z 2200/2306 24008KT 9999 FEW020 
     TEMPO 2214/2223 08022G40KT 3000 SQ TSRA BKN020 SCT033CB
       
TAF GAGO 212325Z 2200/2224 24012KT 8000 FEW030 
     TEMPO 2200/2206 4000 TSRA BKN030 SCT040CB 
     PROB40 
     TEMPO 2213/2220 VRB16G30KT 2000 SQ TSRA SCT030 FEW040CB
       
GABS 220230Z 22004KT 9999 FEW020 24/23 Q1014 NOSIG
TAF GABS 212325Z 2200/2306 24008KT 9999 FEW020 
     TEMPO 2214/2223 08022G40KT 3000 SQ TSRA BKN020 SCT033CB
       
TAF GAGO 212325Z 2200/2224 24012KT 8000 FEW030 
     TEMPO 2200/2206 4000 TSRA BKN030 SCT040CB 
     PROB40 
     TEMPO 2213/2220 VRB16G30KT 2000 SQ TSRA SCT030 FEW040CB
       
GAMB 220000Z 26004KT CAVOK 28/23 Q1012
GANR 220000Z 22008KT CAVOK 27/24 Q1013
GAMB 220000Z 26004KT CAVOK 28/23 Q1012
GANR 220000Z 22008KT CAVOK 27/24 Q1013